sensor_id;sensor_type;location;lat;lon;timestamp;P1;P2;P0
26185;PMS7003;20067;48.764;9.176;2023-09-19T00:01:12;3.00;3.00;1.00
26185;PMS7003;20067;48.764;9.176;2023-09-19T00:03:39;4.00;4.00;1.00
26185;PMS7003;20067;48.764;9.176;2023-09-19T00:06:07;3.00;3.00;1.00
26185;PMS7003;20067;48.764;9.176;2023-09-19T00:08:36;5.00;5.00;2.00
26185;PMS7003;20067;48.764;9.176;2023-09-19T00:11:02;5.00;5.00;1.00
26185;PMS7003;20067;48.764;9.176;2023-09-19T00:13:29;4.00;4.00;1.00
26185;PMS7003;20067;48.764;9.176;2023-09-19T00:15:55;5.50;5.50;2.00
26185;PMS7003;20067;48.764;9.176;2023-09-19T00:18:24;5.50;5.25;1.75
26185;PMS7003;20067;48.764;9.176;2023-09-19T00:20:56;5.75;5.75;2.00
26185;PMS7003;20067;48.764;9.176;2023-09-19T00:23:23;5.00;5.00;2.00
26185;PMS7003;20067;48.764;9.176;2023-09-19T00:25:49;6.00;6.00;2.00
26185;PMS7003;20067;48.764;9.176;2023-09-19T00:28:16;6.75;6.25;2.00
26185;PMS7003;20067;48.764;9.176;2023-09-19T00:30:43;5.00;5.00;1.50
26185;PMS7003;20067;48.764;9.176;2023-09-19T00:33:09;5.00;5.00;2.00
26185;PMS7003;20067;48.764;9.176;2023-09-19T00:35:36;5.00;5.00;2.00
26185;PMS7003;20067;48.764;9.176;2023-09-19T00:38:02;5.00;5.00;2.00
26185;PMS7003;20067;48.764;9.176;2023-09-19T00:40:29;4.00;4.00;1.00
26185;PMS7003;20067;48.764;9.176;2023-09-19T00:42:57;5.00;5.00;1.00
26185;PMS7003;20067;48.764;9.176;2023-09-19T00:45:25;5.00;5.00;1.25
26185;PMS7003;20067;48.764;9.176;2023-09-19T00:47:51;3.25;3.25;1.00
26185;PMS7003;20067;48.764;9.176;2023-09-19T00:50:18;3.00;3.00;1.00
26185;PMS7003;20067;48.764;9.176;2023-09-19T00:52:47;3.00;3.00;1.00
26185;PMS7003;20067;48.764;9.176;2023-09-19T00:55:15;6.25;5.00;1.00
26185;PMS7003;20067;48.764;9.176;2023-09-19T00:57:43;3.00;3.00;1.00
26185;PMS7003;20067;48.764;9.176;2023-09-19T01:00:09;5.00;5.00;1.00
26185;PMS7003;20067;48.764;9.176;2023-09-19T01:02:40;6.00;6.00;2.00
26185;PMS7003;20067;48.764;9.176;2023-09-19T01:05:09;6.00;5.00;2.00
26185;PMS7003;20067;48.764;9.176;2023-09-19T01:07:35;5.00;5.00;1.50
26185;PMS7003;20067;48.764;9.176;2023-09-19T01:10:05;5.50;5.50;2.00
26185;PMS7003;20067;48.764;9.176;2023-09-19T01:18:03;5.00;5.00;2.00
26185;PMS7003;20067;48.764;9.176;2023-09-19T01:23:46;5.00;5.00;2.00
26185;PMS7003;20067;48.764;9.176;2023-09-19T01:32:04;5.00;5.00;1.00
26185;PMS7003;20067;48.764;9.176;2023-09-19T01:34:44;3.00;3.00;1.00
26185;PMS7003;20067;48.764;9.176;2023-09-19T01:37:17;5.00;5.00;1.25
26185;PMS7003;20067;48.764;9.176;2023-09-19T01:39:56;5.00;3.00;1.00
26185;PMS7003;20067;48.764;9.176;2023-09-19T01:47:56;3.00;3.00;1.00
26185;PMS7003;20067;48.764;9.176;2023-09-19T01:50:44;4.50;4.50;1.00
26185;PMS7003;20067;48.764;9.176;2023-09-19T01:53:33;5.00;5.00;1.00
26185;PMS7003;20067;48.764;9.176;2023-09-19T01:56:20;4.25;4.25;1.00
26185;PMS7003;20067;48.764;9.176;2023-09-19T01:58:51;4.50;4.50;0.75
26185;PMS7003;20067;48.764;9.176;2023-09-19T02:01:22;4.50;4.50;1.00
26185;PMS7003;20067;48.764;9.176;2023-09-19T02:03:49;5.00;4.75;1.00
26185;PMS7003;20067;48.764;9.176;2023-09-19T02:06:15;4.00;4.00;0.00
26185;PMS7003;20067;48.764;9.176;2023-09-19T02:08:42;3.00;3.00;0.25
26185;PMS7003;20067;48.764;9.176;2023-09-19T02:11:10;3.00;3.00;1.00
26185;PMS7003;20067;48.764;9.176;2023-09-19T02:13:36;6.00;4.50;1.00
26185;PMS7003;20067;48.764;9.176;2023-09-19T02:16:02;3.00;3.00;1.00
26185;PMS7003;20067;48.764;9.176;2023-09-19T02:18:29;3.00;3.00;1.00
26185;PMS7003;20067;48.764;9.176;2023-09-19T02:20:55;5.75;4.00;1.00
26185;PMS7003;20067;48.764;9.176;2023-09-19T02:23:23;5.00;3.00;1.00
26185;PMS7003;20067;48.764;9.176;2023-09-19T02:25:55;5.00;3.00;1.00
26185;PMS7003;20067;48.764;9.176;2023-09-19T02:28:30;3.25;3.25;0.25
26185;PMS7003;20067;48.764;9.176;2023-09-19T02:30:57;3.00;3.00;1.00
26185;PMS7003;20067;48.764;9.176;2023-09-19T02:33:23;3.00;3.00;1.00
26185;PMS7003;20067;48.764;9.176;2023-09-19T02:35:49;3.00;3.00;1.00
26185;PMS7003;20067;48.764;9.176;2023-09-19T02:38:15;3.00;3.00;1.00
26185;PMS7003;20067;48.764;9.176;2023-09-19T02:40:45;3.50;3.00;0.75
26185;PMS7003;20067;48.764;9.176;2023-09-19T02:43:11;4.00;4.00;1.00
26185;PMS7003;20067;48.764;9.176;2023-09-19T02:45:37;3.00;3.00;1.00
26185;PMS7003;20067;48.764;9.176;2023-09-19T02:48:03;4.25;4.25;1.00
26185;PMS7003;20067;48.764;9.176;2023-09-19T02:50:29;3.00;3.00;0.25
26185;PMS7003;20067;48.764;9.176;2023-09-19T02:52:55;3.00;3.00;0.50
26185;PMS7003;20067;48.764;9.176;2023-09-19T02:55:21;3.00;3.00;1.00
26185;PMS7003;20067;48.764;9.176;2023-09-19T02:57:50;3.00;3.00;1.00
26185;PMS7003;20067;48.764;9.176;2023-09-19T03:00:18;4.50;4.50;1.00
26185;PMS7003;20067;48.764;9.176;2023-09-19T03:02:50;3.00;3.00;1.00
26185;PMS7003;20067;48.764;9.176;2023-09-19T03:05:18;5.00;3.25;1.00
26185;PMS7003;20067;48.764;9.176;2023-09-19T03:07:46;5.25;5.00;1.00
26185;PMS7003;20067;48.764;9.176;2023-09-19T03:10:19;4.00;4.00;0.75
26185;PMS7003;20067;48.764;9.176;2023-09-19T03:12:45;3.00;3.00;1.00
26185;PMS7003;20067;48.764;9.176;2023-09-19T03:15:12;3.00;3.00;1.00
26185;PMS7003;20067;48.764;9.176;2023-09-19T03:17:42;3.00;3.00;0.25
26185;PMS7003;20067;48.764;9.176;2023-09-19T03:20:08;4.50;4.50;1.00
26185;PMS7003;20067;48.764;9.176;2023-09-19T03:22:37;4.00;4.00;1.00
26185;PMS7003;20067;48.764;9.176;2023-09-19T03:25:03;5.00;5.00;1.00
26185;PMS7003;20067;48.764;9.176;2023-09-19T03:27:32;5.00;4.50;1.00
26185;PMS7003;20067;48.764;9.176;2023-09-19T03:29:59;3.00;3.00;1.00
26185;PMS7003;20067;48.764;9.176;2023-09-19T03:32:24;5.00;4.25;1.00
26185;PMS7003;20067;48.764;9.176;2023-09-19T03:34:50;4.50;4.50;1.00
26185;PMS7003;20067;48.764;9.176;2023-09-19T03:37:16;4.50;4.50;1.00
26185;PMS7003;20067;48.764;9.176;2023-09-19T03:39:42;3.00;3.00;1.00
26185;PMS7003;20067;48.764;9.176;2023-09-19T03:42:08;3.50;3.50;1.00
26185;PMS7003;20067;48.764;9.176;2023-09-19T03:44:33;4.75;4.75;1.00
26185;PMS7003;20067;48.764;9.176;2023-09-19T03:46:59;5.00;5.00;1.00
26185;PMS7003;20067;48.764;9.176;2023-09-19T03:49:24;5.00;5.00;1.50
26185;PMS7003;20067;48.764;9.176;2023-09-19T03:51:50;4.25;3.00;1.00
26185;PMS7003;20067;48.764;9.176;2023-09-19T03:54:16;3.25;3.25;1.00
26185;PMS7003;20067;48.764;9.176;2023-09-19T03:56:42;3.00;3.00;0.50
26185;PMS7003;20067;48.764;9.176;2023-09-19T03:59:09;3.50;3.50;1.00
26185;PMS7003;20067;48.764;9.176;2023-09-19T04:01:34;7.00;5.00;1.00
26185;PMS7003;20067;48.764;9.176;2023-09-19T04:04:00;5.00;5.00;1.00
26185;PMS7003;20067;48.764;9.176;2023-09-19T04:06:33;4.50;4.00;1.00
26185;PMS7003;20067;48.764;9.176;2023-09-19T04:09:00;3.00;3.00;1.00
26185;PMS7003;20067;48.764;9.176;2023-09-19T04:11:26;5.00;3.50;1.00
26185;PMS7003;20067;48.764;9.176;2023-09-19T04:13:52;3.50;3.50;1.00
26185;PMS7003;20067;48.764;9.176;2023-09-19T04:16:18;3.00;3.00;1.00
26185;PMS7003;20067;48.764;9.176;2023-09-19T04:18:44;2.00;2.00;0.00
26185;PMS7003;20067;48.764;9.176;2023-09-19T04:21:10;3.00;3.00;1.00
26185;PMS7003;20067;48.764;9.176;2023-09-19T04:23:36;5.00;5.00;2.00
26185;PMS7003;20067;48.764;9.176;2023-09-19T04:26:01;3.00;2.50;0.00
26185;PMS7003;20067;48.764;9.176;2023-09-19T04:28:29;5.00;5.00;1.50
26185;PMS7003;20067;48.764;9.176;2023-09-19T04:30:56;3.50;3.50;0.00
26185;PMS7003;20067;48.764;9.176;2023-09-19T04:33:22;5.00;4.00;1.00
26185;PMS7003;20067;48.764;9.176;2023-09-19T04:35:49;5.00;5.00;1.00
26185;PMS7003;20067;48.764;9.176;2023-09-19T04:38:15;5.00;5.00;1.00
26185;PMS7003;20067;48.764;9.176;2023-09-19T04:40:42;4.00;4.00;1.00
26185;PMS7003;20067;48.764;9.176;2023-09-19T04:43:08;5.75;5.75;1.00
26185;PMS7003;20067;48.764;9.176;2023-09-19T04:45:34;6.00;6.00;1.00
26185;PMS7003;20067;48.764;9.176;2023-09-19T04:48:00;3.75;3.75;1.00
26185;PMS7003;20067;48.764;9.176;2023-09-19T04:50:27;6.75;6.00;2.00
26185;PMS7003;20067;48.764;9.176;2023-09-19T04:52:53;5.00;5.00;1.25
26185;PMS7003;20067;48.764;9.176;2023-09-19T04:55:19;5.25;5.25;2.00
26185;PMS7003;20067;48.764;9.176;2023-09-19T04:57:49;6.50;6.50;2.50
26185;PMS7003;20067;48.764;9.176;2023-09-19T05:00:16;9.00;8.00;4.00
26185;PMS7003;20067;48.764;9.176;2023-09-19T05:02:48;8.00;8.00;4.50
26185;PMS7003;20067;48.764;9.176;2023-09-19T05:05:19;11.25;10.00;6.00
26185;PMS7003;20067;48.764;9.176;2023-09-19T05:07:45;11.00;9.75;6.00
26185;PMS7003;20067;48.764;9.176;2023-09-19T05:10:11;12.75;12.75;9.00
26185;PMS7003;20067;48.764;9.176;2023-09-19T05:12:37;13.75;13.75;9.50
26185;PMS7003;20067;48.764;9.176;2023-09-19T05:15:04;19.25;18.00;14.00
26185;PMS7003;20067;48.764;9.176;2023-09-19T05:17:31;22.00;21.00;16.25
26185;PMS7003;20067;48.764;9.176;2023-09-19T05:19:59;22.25;22.25;20.00
26185;PMS7003;20067;48.764;9.176;2023-09-19T05:22:36;28.25;28.25;24.50
26185;PMS7003;20067;48.764;9.176;2023-09-19T05:25:05;28.75;28.75;25.00
26185;PMS7003;20067;48.764;9.176;2023-09-19T05:27:32;26.25;26.25;23.00
26185;PMS7003;20067;48.764;9.176;2023-09-19T05:29:58;28.25;28.25;25.00
26185;PMS7003;20067;48.764;9.176;2023-09-19T05:32:24;28.50;28.50;25.00
26185;PMS7003;20067;48.764;9.176;2023-09-19T05:34:50;27.25;27.25;23.75
26185;PMS7003;20067;48.764;9.176;2023-09-19T05:37:21;27.75;27.75;24.00
26185;PMS7003;20067;48.764;9.176;2023-09-19T05:39:48;26.75;26.75;22.75
26185;PMS7003;20067;48.764;9.176;2023-09-19T05:42:14;27.00;27.00;23.00
26185;PMS7003;20067;48.764;9.176;2023-09-19T05:44:39;29.00;27.50;24.00
26185;PMS7003;20067;48.764;9.176;2023-09-19T05:47:05;28.75;28.75;25.50
26185;PMS7003;20067;48.764;9.176;2023-09-19T05:49:34;32.50;31.50;26.75
26185;PMS7003;20067;48.764;9.176;2023-09-19T05:52:03;29.00;29.00;25.25
26185;PMS7003;20067;48.764;9.176;2023-09-19T05:54:32;28.00;28.00;25.00
26185;PMS7003;20067;48.764;9.176;2023-09-19T05:56:59;26.50;25.75;22.00
26185;PMS7003;20067;48.764;9.176;2023-09-19T05:59:25;22.25;22.25;19.00
26185;PMS7003;20067;48.764;9.176;2023-09-19T06:01:52;22.75;22.75;18.75
26185;PMS7003;20067;48.764;9.176;2023-09-19T06:04:19;23.00;23.00;19.25
26185;PMS7003;20067;48.764;9.176;2023-09-19T06:06:45;25.25;22.25;19.00
26185;PMS7003;20067;48.764;9.176;2023-09-19T06:09:13;20.25;20.25;17.00
26185;PMS7003;20067;48.764;9.176;2023-09-19T06:11:41;18.75;18.75;15.00
26185;PMS7003;20067;48.764;9.176;2023-09-19T06:14:07;20.00;20.00;16.75
26185;PMS7003;20067;48.764;9.176;2023-09-19T06:16:32;15.50;15.50;12.50
26185;PMS7003;20067;48.764;9.176;2023-09-19T06:18:58;22.75;19.25;15.00
26185;PMS7003;20067;48.764;9.176;2023-09-19T06:21:25;19.25;19.25;15.50
26185;PMS7003;20067;48.764;9.176;2023-09-19T06:23:52;21.00;21.00;17.75
26185;PMS7003;20067;48.764;9.176;2023-09-19T06:26:18;23.00;23.00;19.00
26185;PMS7003;20067;48.764;9.176;2023-09-19T06:28:44;19.25;19.00;14.25
26185;PMS7003;20067;48.764;9.176;2023-09-19T06:31:09;16.75;16.75;13.50
26185;PMS7003;20067;48.764;9.176;2023-09-19T06:33:36;14.00;14.00;11.00
26185;PMS7003;20067;48.764;9.176;2023-09-19T06:36:05;14.25;14.25;11.00
26185;PMS7003;20067;48.764;9.176;2023-09-19T06:38:31;13.50;13.50;9.75
26185;PMS7003;20067;48.764;9.176;2023-09-19T06:41:00;17.75;17.75;14.50
26185;PMS7003;20067;48.764;9.176;2023-09-19T06:43:30;14.50;14.50;11.00
26185;PMS7003;20067;48.764;9.176;2023-09-19T06:45:57;14.50;13.25;9.25
26185;PMS7003;20067;48.764;9.176;2023-09-19T06:48:24;15.75;15.75;12.75
26185;PMS7003;20067;48.764;9.176;2023-09-19T06:50:50;15.50;15.00;12.00
26185;PMS7003;20067;48.764;9.176;2023-09-19T06:53:16;14.75;14.75;12.00
26185;PMS7003;20067;48.764;9.176;2023-09-19T06:55:42;14.50;14.50;10.75
26185;PMS7003;20067;48.764;9.176;2023-09-19T06:58:09;13.75;13.00;10.00
26185;PMS7003;20067;48.764;9.176;2023-09-19T07:00:35;16.75;16.75;13.00
26185;PMS7003;20067;48.764;9.176;2023-09-19T07:05:33;15.75;15.75;12.50
26185;PMS7003;20067;48.764;9.176;2023-09-19T07:08:03;16.25;15.50;12.00
26185;PMS7003;20067;48.764;9.176;2023-09-19T07:10:31;10.50;10.50;7.00
26185;PMS7003;20067;48.764;9.176;2023-09-19T07:13:04;10.75;10.00;7.00
26185;PMS7003;20067;48.764;9.176;2023-09-19T07:15:35;11.75;10.00;6.50
26185;PMS7003;20067;48.764;9.176;2023-09-19T07:18:04;7.00;7.00;4.00
26185;PMS7003;20067;48.764;9.176;2023-09-19T07:20:31;10.75;8.75;5.00
26185;PMS7003;20067;48.764;9.176;2023-09-19T07:23:00;7.00;7.00;4.50
26185;PMS7003;20067;48.764;9.176;2023-09-19T07:25:26;11.00;11.00;6.50
26185;PMS7003;20067;48.764;9.176;2023-09-19T07:27:54;9.00;9.00;5.00
26185;PMS7003;20067;48.764;9.176;2023-09-19T07:30:21;9.75;9.75;6.00
26185;PMS7003;20067;48.764;9.176;2023-09-19T07:32:47;9.00;9.00;5.75
26185;PMS7003;20067;48.764;9.176;2023-09-19T07:35:13;9.00;8.00;5.25
26185;PMS7003;20067;48.764;9.176;2023-09-19T07:37:40;7.50;7.50;5.00
26185;PMS7003;20067;48.764;9.176;2023-09-19T07:40:07;7.00;7.00;3.00
26185;PMS7003;20067;48.764;9.176;2023-09-19T07:42:38;7.25;7.25;5.00
26185;PMS7003;20067;48.764;9.176;2023-09-19T07:45:06;7.75;7.25;3.75
26185;PMS7003;20067;48.764;9.176;2023-09-19T07:47:34;8.50;8.50;4.50
26185;PMS7003;20067;48.764;9.176;2023-09-19T07:50:01;6.25;6.25;3.00
26185;PMS7003;20067;48.764;9.176;2023-09-19T07:52:28;10.00;9.75;5.00
26185;PMS7003;20067;48.764;9.176;2023-09-19T07:54:54;8.00;8.00;5.00
26185;PMS7003;20067;48.764;9.176;2023-09-19T07:57:22;6.75;6.75;2.75
26185;PMS7003;20067;48.764;9.176;2023-09-19T07:59:48;6.00;6.00;2.50
26185;PMS7003;20067;48.764;9.176;2023-09-19T08:02:14;6.75;5.75;2.00
26185;PMS7003;20067;48.764;9.176;2023-09-19T08:04:46;6.00;6.00;2.25
26185;PMS7003;20067;48.764;9.176;2023-09-19T08:07:13;5.75;5.50;2.00
26185;PMS7003;20067;48.764;9.176;2023-09-19T08:09:39;6.00;6.00;2.00
26185;PMS7003;20067;48.764;9.176;2023-09-19T08:12:05;3.00;3.00;1.00
26185;PMS7003;20067;48.764;9.176;2023-09-19T08:14:36;7.00;4.00;1.00
26185;PMS7003;20067;48.764;9.176;2023-09-19T08:17:03;5.00;5.00;2.00
26185;PMS7003;20067;48.764;9.176;2023-09-19T08:19:30;5.50;3.25;1.00
26185;PMS7003;20067;48.764;9.176;2023-09-19T08:21:59;6.00;5.00;1.00
26185;PMS7003;20067;48.764;9.176;2023-09-19T08:24:26;3.75;3.75;1.00
26185;PMS7003;20067;48.764;9.176;2023-09-19T08:26:58;3.75;3.00;1.00
26185;PMS7003;20067;48.764;9.176;2023-09-19T08:29:24;3.50;3.00;1.00
26185;PMS7003;20067;48.764;9.176;2023-09-19T08:31:56;5.50;4.00;1.25
26185;PMS7003;20067;48.764;9.176;2023-09-19T08:34:23;3.25;3.25;1.00
26185;PMS7003;20067;48.764;9.176;2023-09-19T08:36:53;4.00;4.00;1.00
26185;PMS7003;20067;48.764;9.176;2023-09-19T08:39:22;5.75;3.75;1.00
26185;PMS7003;20067;48.764;9.176;2023-09-19T08:41:48;4.25;4.25;1.00
26185;PMS7003;20067;48.764;9.176;2023-09-19T08:44:14;4.75;4.75;1.50
26185;PMS7003;20067;48.764;9.176;2023-09-19T08:46:48;4.75;3.25;1.00
26185;PMS7003;20067;48.764;9.176;2023-09-19T08:49:19;3.00;3.00;1.00
26185;PMS7003;20067;48.764;9.176;2023-09-19T08:51:56;4.00;4.00;1.00
26185;PMS7003;20067;48.764;9.176;2023-09-19T08:54:31;4.00;3.75;1.00
26185;PMS7003;20067;48.764;9.176;2023-09-19T08:57:07;4.00;4.00;1.00
26185;PMS7003;20067;48.764;9.176;2023-09-19T08:59:37;4.00;4.00;1.00
26185;PMS7003;20067;48.764;9.176;2023-09-19T09:02:12;3.50;3.50;1.00
26185;PMS7003;20067;48.764;9.176;2023-09-19T09:04:58;3.25;3.25;1.00
26185;PMS7003;20067;48.764;9.176;2023-09-19T09:07:26;4.25;4.00;1.00
26185;PMS7003;20067;48.764;9.176;2023-09-19T09:09:57;3.75;3.00;0.75
26185;PMS7003;20067;48.764;9.176;2023-09-19T09:12:23;4.50;3.00;1.00
26185;PMS7003;20067;48.764;9.176;2023-09-19T09:14:51;4.00;3.25;0.50
26185;PMS7003;20067;48.764;9.176;2023-09-19T09:17:17;4.50;3.50;1.00
26185;PMS7003;20067;48.764;9.176;2023-09-19T09:19:45;4.00;4.00;1.00
26185;PMS7003;20067;48.764;9.176;2023-09-19T09:22:13;4.25;3.50;1.00
26185;PMS7003;20067;48.764;9.176;2023-09-19T09:24:51;3.00;3.00;1.00
26185;PMS7003;20067;48.764;9.176;2023-09-19T09:27:38;4.00;4.00;1.50
26185;PMS7003;20067;48.764;9.176;2023-09-19T09:30:08;3.50;3.25;1.25
26185;PMS7003;20067;48.764;9.176;2023-09-19T09:32:34;4.00;4.00;1.00
26185;PMS7003;20067;48.764;9.176;2023-09-19T09:35:02;4.00;4.00;1.25
26185;PMS7003;20067;48.764;9.176;2023-09-19T09:37:40;3.50;3.50;1.00
26185;PMS7003;20067;48.764;9.176;2023-09-19T09:40:08;4.75;4.00;1.50
26185;PMS7003;20067;48.764;9.176;2023-09-19T09:42:41;3.00;3.00;1.00
26185;PMS7003;20067;48.764;9.176;2023-09-19T09:48:00;3.50;3.50;1.00
26185;PMS7003;20067;48.764;9.176;2023-09-19T09:50:38;5.00;5.00;2.00
26185;PMS7003;20067;48.764;9.176;2023-09-19T09:53:27;5.00;3.50;1.00
26185;PMS7003;20067;48.764;9.176;2023-09-19T09:58:27;7.50;5.00;1.50
26185;PMS7003;20067;48.764;9.176;2023-09-19T10:01:03;4.25;4.00;1.75
26185;PMS7003;20067;48.764;9.176;2023-09-19T10:03:56;4.00;3.00;1.00
26185;PMS7003;20067;48.764;9.176;2023-09-19T10:06:23;4.25;4.25;1.00
26185;PMS7003;20067;48.764;9.176;2023-09-19T10:09:02;4.25;4.25;2.00
26185;PMS7003;20067;48.764;9.176;2023-09-19T10:11:48;4.00;4.00;1.00
26185;PMS7003;20067;48.764;9.176;2023-09-19T10:14:30;5.00;5.00;2.00
26185;PMS7003;20067;48.764;9.176;2023-09-19T10:17:00;4.00;4.00;1.25
26185;PMS7003;20067;48.764;9.176;2023-09-19T10:19:30;3.75;3.75;1.25
26185;PMS7003;20067;48.764;9.176;2023-09-19T10:22:34;4.25;4.25;1.00
26185;PMS7003;20067;48.764;9.176;2023-09-19T10:25:02;5.00;4.00;1.00
26185;PMS7003;20067;48.764;9.176;2023-09-19T10:27:32;4.00;4.00;1.50
26185;PMS7003;20067;48.764;9.176;2023-09-19T10:30:02;4.00;4.00;1.00
26185;PMS7003;20067;48.764;9.176;2023-09-19T10:32:32;4.25;4.25;1.75
26185;PMS7003;20067;48.764;9.176;2023-09-19T10:35:00;4.25;4.25;1.00
26185;PMS7003;20067;48.764;9.176;2023-09-19T10:37:32;6.25;4.50;2.25
26185;PMS7003;20067;48.764;9.176;2023-09-19T10:40:04;4.00;4.00;1.00
26185;PMS7003;20067;48.764;9.176;2023-09-19T10:42:33;4.00;4.00;2.00
26185;PMS7003;20067;48.764;9.176;2023-09-19T10:45:03;4.75;4.75;2.00
26185;PMS7003;20067;48.764;9.176;2023-09-19T10:47:38;7.00;4.00;2.00
26185;PMS7003;20067;48.764;9.176;2023-09-19T10:50:05;3.25;3.25;1.00
26185;PMS7003;20067;48.764;9.176;2023-09-19T10:52:38;4.00;4.00;1.75
26185;PMS7003;20067;48.764;9.176;2023-09-19T10:55:07;3.75;3.75;1.00
26185;PMS7003;20067;48.764;9.176;2023-09-19T10:57:36;5.00;4.00;1.25
26185;PMS7003;20067;48.764;9.176;2023-09-19T11:00:03;4.75;4.75;2.00
26185;PMS7003;20067;48.764;9.176;2023-09-19T11:05:36;5.00;3.25;1.00
26185;PMS7003;20067;48.764;9.176;2023-09-19T11:08:06;4.00;4.00;2.00
26185;PMS7003;20067;48.764;9.176;2023-09-19T11:10:49;5.00;5.00;2.50
26185;PMS7003;20067;48.764;9.176;2023-09-19T11:13:26;4.00;4.00;1.25
26185;PMS7003;20067;48.764;9.176;2023-09-19T11:16:03;5.75;3.75;1.00
26185;PMS7003;20067;48.764;9.176;2023-09-19T11:27:09;4.00;4.00;1.00
26185;PMS7003;20067;48.764;9.176;2023-09-19T11:29:39;4.75;4.00;1.75
26185;PMS7003;20067;48.764;9.176;2023-09-19T11:32:06;5.00;4.00;2.00
26185;PMS7003;20067;48.764;9.176;2023-09-19T11:34:44;3.75;3.00;1.00
26185;PMS7003;20067;48.764;9.176;2023-09-19T11:42:47;4.50;4.50;2.00
26185;PMS7003;20067;48.764;9.176;2023-09-19T11:48:14;3.75;3.75;0.50
26185;PMS7003;20067;48.764;9.176;2023-09-19T11:50:42;5.00;4.00;1.00
26185;PMS7003;20067;48.764;9.176;2023-09-19T11:53:09;4.50;4.00;1.00
26185;PMS7003;20067;48.764;9.176;2023-09-19T11:55:41;5.50;4.00;1.75
26185;PMS7003;20067;48.764;9.176;2023-09-19T11:58:11;5.00;5.00;1.00
26185;PMS7003;20067;48.764;9.176;2023-09-19T12:00:41;5.00;5.00;1.00
26185;PMS7003;20067;48.764;9.176;2023-09-19T12:03:10;3.25;3.25;1.00
26185;PMS7003;20067;48.764;9.176;2023-09-19T12:05:39;4.25;4.25;1.00
26185;PMS7003;20067;48.764;9.176;2023-09-19T12:08:05;4.75;4.00;2.00
26185;PMS7003;20067;48.764;9.176;2023-09-19T12:10:43;5.00;4.75;2.00
26185;PMS7003;20067;48.764;9.176;2023-09-19T12:13:19;4.00;4.00;1.00
26185;PMS7003;20067;48.764;9.176;2023-09-19T12:15:45;4.25;4.25;1.25
26185;PMS7003;20067;48.764;9.176;2023-09-19T12:18:29;4.00;4.00;1.00
26185;PMS7003;20067;48.764;9.176;2023-09-19T12:20:55;4.00;4.00;1.00
26185;PMS7003;20067;48.764;9.176;2023-09-19T12:23:23;5.75;5.00;2.00
26185;PMS7003;20067;48.764;9.176;2023-09-19T12:25:51;4.00;4.00;1.00
26185;PMS7003;20067;48.764;9.176;2023-09-19T12:28:19;3.75;3.75;1.00
26185;PMS7003;20067;48.764;9.176;2023-09-19T12:30:48;4.25;4.00;1.25
26185;PMS7003;20067;48.764;9.176;2023-09-19T12:33:15;4.00;4.00;2.00
26185;PMS7003;20067;48.764;9.176;2023-09-19T12:35:46;5.00;5.00;2.00
26185;PMS7003;20067;48.764;9.176;2023-09-19T12:41:12;5.75;5.00;2.50
26185;PMS7003;20067;48.764;9.176;2023-09-19T12:43:39;4.50;4.00;2.00
26185;PMS7003;20067;48.764;9.176;2023-09-19T12:46:06;3.50;3.50;1.00
26185;PMS7003;20067;48.764;9.176;2023-09-19T12:48:35;5.00;4.00;1.00
26185;PMS7003;20067;48.764;9.176;2023-09-19T12:51:08;4.25;3.25;1.00
26185;PMS7003;20067;48.764;9.176;2023-09-19T12:53:44;4.00;4.00;1.00
26185;PMS7003;20067;48.764;9.176;2023-09-19T12:56:16;4.50;4.50;1.00
26185;PMS7003;20067;48.764;9.176;2023-09-19T13:01:15;4.00;4.00;1.00
26185;PMS7003;20067;48.764;9.176;2023-09-19T13:03:41;4.00;4.00;1.75
26185;PMS7003;20067;48.764;9.176;2023-09-19T13:06:07;4.50;4.50;1.50
26185;PMS7003;20067;48.764;9.176;2023-09-19T13:08:37;3.25;3.25;1.00
26185;PMS7003;20067;48.764;9.176;2023-09-19T13:11:04;4.75;4.00;1.00
26185;PMS7003;20067;48.764;9.176;2023-09-19T13:13:42;3.75;3.75;1.00
26185;PMS7003;20067;48.764;9.176;2023-09-19T13:16:33;4.75;3.75;1.50
26185;PMS7003;20067;48.764;9.176;2023-09-19T13:18:59;4.00;4.00;1.00
26185;PMS7003;20067;48.764;9.176;2023-09-19T13:21:31;3.00;3.00;1.00
26185;PMS7003;20067;48.764;9.176;2023-09-19T13:26:48;4.75;3.25;1.00
26185;PMS7003;20067;48.764;9.176;2023-09-19T13:29:14;3.50;3.50;1.00
26185;PMS7003;20067;48.764;9.176;2023-09-19T13:31:47;3.00;3.00;1.00
26185;PMS7003;20067;48.764;9.176;2023-09-19T13:34:15;4.00;4.00;1.00
26185;PMS7003;20067;48.764;9.176;2023-09-19T13:36:42;5.00;5.00;2.00
26185;PMS7003;20067;48.764;9.176;2023-09-19T13:39:09;4.50;4.50;1.50
26185;PMS7003;20067;48.764;9.176;2023-09-19T13:41:37;3.25;3.25;1.00
26185;PMS7003;20067;48.764;9.176;2023-09-19T13:44:03;4.25;3.00;1.00
26185;PMS7003;20067;48.764;9.176;2023-09-19T13:46:29;3.75;3.75;1.00
26185;PMS7003;20067;48.764;9.176;2023-09-19T13:48:59;4.00;4.00;1.00
26185;PMS7003;20067;48.764;9.176;2023-09-19T13:51:28;4.00;4.00;1.50
26185;PMS7003;20067;48.764;9.176;2023-09-19T13:53:55;4.00;4.00;1.50
26185;PMS7003;20067;48.764;9.176;2023-09-19T13:56:20;5.00;4.00;1.25
26185;PMS7003;20067;48.764;9.176;2023-09-19T13:58:46;4.00;3.00;1.00
26185;PMS7003;20067;48.764;9.176;2023-09-19T14:01:12;3.00;3.00;1.00
26185;PMS7003;20067;48.764;9.176;2023-09-19T14:03:38;4.00;4.00;1.00
26185;PMS7003;20067;48.764;9.176;2023-09-19T14:06:06;5.25;4.00;1.00
26185;PMS7003;20067;48.764;9.176;2023-09-19T14:08:31;3.25;3.00;0.00
26185;PMS7003;20067;48.764;9.176;2023-09-19T14:10:59;3.50;3.00;0.50
26185;PMS7003;20067;48.764;9.176;2023-09-19T14:13:33;4.50;4.00;1.75
26185;PMS7003;20067;48.764;9.176;2023-09-19T14:16:04;3.00;3.00;0.50
26185;PMS7003;20067;48.764;9.176;2023-09-19T14:18:31;3.00;3.00;1.00
26185;PMS7003;20067;48.764;9.176;2023-09-19T14:21:02;5.75;3.50;1.00
26185;PMS7003;20067;48.764;9.176;2023-09-19T14:23:39;4.00;4.00;1.25
26185;PMS7003;20067;48.764;9.176;2023-09-19T14:26:21;3.00;3.00;1.00
26185;PMS7003;20067;48.764;9.176;2023-09-19T14:28:51;5.00;4.00;1.00
26185;PMS7003;20067;48.764;9.176;2023-09-19T14:31:17;3.75;3.75;1.00
26185;PMS7003;20067;48.764;9.176;2023-09-19T14:33:43;5.75;5.75;2.00
26185;PMS7003;20067;48.764;9.176;2023-09-19T14:36:09;4.50;4.50;2.00
26185;PMS7003;20067;48.764;9.176;2023-09-19T14:38:36;5.00;4.00;2.00
26185;PMS7003;20067;48.764;9.176;2023-09-19T14:41:02;4.50;4.50;2.00
26185;PMS7003;20067;48.764;9.176;2023-09-19T14:43:30;4.00;4.00;1.25
26185;PMS7003;20067;48.764;9.176;2023-09-19T14:46:07;6.00;5.00;2.00
26185;PMS7003;20067;48.764;9.176;2023-09-19T14:48:34;5.00;4.00;1.50
26185;PMS7003;20067;48.764;9.176;2023-09-19T14:51:03;3.00;3.00;1.00
26185;PMS7003;20067;48.764;9.176;2023-09-19T14:53:30;4.50;4.50;2.00
26185;PMS7003;20067;48.764;9.176;2023-09-19T14:55:56;4.00;4.00;1.50
26185;PMS7003;20067;48.764;9.176;2023-09-19T14:58:25;4.00;4.00;2.00
26185;PMS7003;20067;48.764;9.176;2023-09-19T15:00:51;4.00;4.00;1.25
26185;PMS7003;20067;48.764;9.176;2023-09-19T15:03:17;5.25;4.75;1.75
26185;PMS7003;20067;48.764;9.176;2023-09-19T15:05:43;4.75;4.75;2.00
26185;PMS7003;20067;48.764;9.176;2023-09-19T15:08:08;4.00;4.00;1.00
26185;PMS7003;20067;48.764;9.176;2023-09-19T15:10:34;5.50;5.00;3.00
26185;PMS7003;20067;48.764;9.176;2023-09-19T15:13:00;8.75;6.00;3.00
26185;PMS7003;20067;48.764;9.176;2023-09-19T15:15:25;6.00;6.00;3.00
26185;PMS7003;20067;48.764;9.176;2023-09-19T15:17:51;5.00;4.00;2.00
26185;PMS7003;20067;48.764;9.176;2023-09-19T15:20:17;6.00;6.00;3.00
26185;PMS7003;20067;48.764;9.176;2023-09-19T15:22:42;5.00;5.00;2.25